ADDS METAR Data INFO
IDs: Format: Raw Decoded Include TAF

Data at: 1846 UTC 17 Oct 2017

KDBN 171835Z AUTO 09010G14KT 10SM CLR 21/03 A3026 RMK AO2
KDBN 171815Z AUTO 09011G15KT 10SM CLR 21/02 A3026 RMK AO2
KDBN 171755Z AUTO 08009KT 10SM CLR 21/03 A3028 RMK AO2
KDBN 171735Z AUTO 05011G14KT 015V075 10SM CLR 20/02 A3029 RMK AO2
KDBN 171715Z AUTO 07010G16KT 10SM CLR 20/02 A3030 RMK AO2
KDBN 171655Z AUTO 07010G15KT 10SM CLR 20/03 A3031 RMK AO2
KDBN 171635Z AUTO 06007G17KT 015V095 10SM CLR 19/03 A3032 RMK AO2
KDBN 171615Z AUTO 06011G17KT 10SM CLR 18/03 A3034 RMK AO2
KDBN 171555Z AUTO 06010G17KT 10SM CLR 18/03 A3034 RMK AO2
KDBN 171535Z AUTO 07011G19KT 10SM CLR 18/03 A3034 RMK AO2
KDBN 171515Z AUTO 07013G17KT 10SM CLR 17/03 A3034 RMK AO2
KDBN 171455Z AUTO 08014G19KT 10SM CLR 17/03 A3035 RMK AO2
KDBN 171435Z AUTO 05009G14KT 10SM CLR 16/05 A3034 RMK AO2
KDBN 171415Z AUTO 07012G17KT 10SM CLR 15/04 A3034 RMK AO2
KDBN 171355Z AUTO 07010G15KT 10SM CLR 15/05 A3033 RMK AO2
KDBN 171335Z AUTO 07008G15KT 10SM CLR 14/05 A3033 RMK AO2
KDBN 171315Z AUTO 05009KT 10SM CLR 13/05 A3032 RMK AO2
KDBN 171255Z AUTO 06006KT 10SM CLR 12/05 A3031 RMK AO2
KDBN 171235Z AUTO 04006KT 10SM CLR 11/05 A3030 RMK AO2
KDBN 171215Z AUTO 03004KT 10SM CLR 10/05 A3029 RMK AO2
KDBN 171155Z AUTO 04005KT 10SM CLR 10/05 A3028 RMK AO2
KDBN 171115Z AUTO 04005KT 10SM CLR 10/05 A3027 RMK AO2
KDBN 171055Z AUTO 04005KT 10SM CLR 11/05 A3026 RMK AO2
KDBN 171035Z AUTO 03004KT 10SM CLR 11/05 A3025 RMK AO2
KDBN 171015Z AUTO 04004KT 10SM CLR 11/05 A3025 RMK AO2
KDBN 170955Z AUTO 04005KT 10SM CLR 11/05 A3024 RMK AO2
KDBN 170935Z AUTO 04004KT 10SM CLR 11/05 A3024 RMK AO2
KDBN 170915Z AUTO 04005KT 10SM CLR 11/05 A3023 RMK AO2
KDBN 170855Z AUTO 03004KT 10SM CLR 11/06 A3023 RMK AO2
KDBN 170835Z AUTO 03003KT 10SM CLR 12/06 A3022 RMK AO2
KDBN 170815Z AUTO 03004KT 10SM CLR 12/06 A3022 RMK AO2
KDBN 170755Z AUTO 05005KT 10SM CLR 13/06 A3023 RMK AO2
KDBN 170735Z AUTO 05005KT 10SM CLR 13/06 A3022 RMK AO2
KDBN 170715Z AUTO 05004KT 10SM CLR 13/06 A3022 RMK AO2
KDBN 170655Z AUTO 06008KT 10SM CLR 14/06 A3023 RMK AO2
KDBN 170635Z AUTO 06006KT 10SM CLR 15/07 A3022 RMK AO2
KDBN 170615Z AUTO 06008KT 10SM CLR 15/07 A3022 RMK AO2
KDBN 170555Z AUTO 06008KT 10SM CLR 15/07 A3021 RMK AO2
KDBN 170535Z AUTO 07008G14KT 10SM CLR 16/07 A3021 RMK AO2
KDBN 170515Z AUTO 06008G18KT 10SM CLR 16/07 A3020 RMK AO2
KDBN 170455Z AUTO 06011G18KT 10SM CLR 16/08 A3020 RMK AO2
KDBN 170435Z AUTO 06011G16KT 10SM CLR 16/10 A3020 RMK AO2
KDBN 170415Z AUTO 05008KT 10SM CLR 17/10 A3019 RMK AO2
KDBN 170355Z AUTO 06009G15KT 10SM CLR 17/11 A3019 RMK AO2
KDBN 170335Z AUTO 06009G16KT 10SM CLR 17/11 A3019 RMK AO2
KDBN 170315Z AUTO 06008KT 10SM CLR 18/12 A3018 RMK AO2
KDBN 170255Z AUTO 06008G17KT 10SM CLR 18/13 A3017 RMK AO2
KDBN 170235Z AUTO 06012G17KT 10SM SCT026 18/13 A3016 RMK AO2
KDBN 170215Z AUTO 06010G15KT 10SM SCT026 19/14 A3015 RMK AO2
KDBN 170155Z AUTO 05008G16KT 025V085 10SM SCT026 SCT037 20/14 A3014 RMK AO2
KDBN 170135Z AUTO 05012G17KT 10SM SCT024 OVC037 20/15 A3013 RMK AO2
KDBN 170115Z AUTO 05005KT 10SM OVC024 20/13 A3013 RMK AO2
KDBN 170055Z AUTO 36005KT 10SM SCT026 BKN031 BKN045 19/12 A3012 RMK AO2
KDBN 170035Z AUTO 33004KT 10SM BKN043 OVC055 18/13 A3010 RMK AO2
KDBN 170015Z AUTO 32003KT 10SM SCT041 BKN047 17/13 A3009 RMK AO2
KDBN 162355Z AUTO 31003KT 10SM SCT045 18/13 A3008 RMK AO2
KDBN 162335Z AUTO 32003KT 10SM SCT045 18/13 A3007 RMK AO2
KDBN 162315Z AUTO 33004KT 10SM CLR 19/13 A3006 RMK AO2
KDBN 162255Z AUTO 33005KT 10SM CLR 20/13 A3005 RMK AO2
KDBN 162235Z AUTO 32007KT 10SM CLR 21/13 A3004 RMK AO2
KDBN 162215Z AUTO 32008KT 10SM CLR 22/13 A3003 RMK AO2
KDBN 162155Z AUTO 32009KT 10SM CLR 23/13 A3003 RMK AO2
KDBN 162135Z AUTO 34010KT 10SM CLR 25/13 A3002 RMK AO2
KDBN 162115Z AUTO 33007KT 10SM CLR 25/14 A3001 RMK AO2
KDBN 162055Z AUTO 34008KT 10SM CLR 25/14 A3001 RMK AO2
KDBN 162035Z AUTO 32005KT 10SM CLR 24/13 A3001 RMK AO2
KDBN 162015Z AUTO 32008KT 10SM CLR 25/14 A3001 RMK AO2
KDBN 161955Z AUTO 34006G14KT 10SM CLR 26/12 A3001 RMK AO2
KDBN 161935Z AUTO 31007KT 10SM SCT060 27/14 A3000 RMK AO2
KDBN 161915Z AUTO 31009KT 10SM BKN050 26/16 A3001 RMK AO2
KDBN 161855Z AUTO 32007KT 10SM SCT029 SCT043 OVC050 26/17 A3001 RMK AO2
KDBN 161835Z AUTO 33009KT 10SM BKN029 BKN041 BKN048 26/18 A3002 RMK AO2
KDBN 161815Z AUTO 32006G09KT 10SM SCT027 SCT041 BKN050 27/18 A3003 RMK AO2
KDBN 161755Z AUTO 30007KT 10SM SCT039 SCT050 26/18 A3004 RMK AO2
KDBN 161735Z AUTO 33007KT 10SM BKN037 BKN046 BKN055 26/18 A3005 RMK AO2
KDBN 161715Z AUTO 31008KT 10SM OVC035 26/18 A3006 RMK AO2
KDBN 161655Z AUTO 30007KT 10SM SCT024 BKN035 OVC041 26/18 A3007 RMK AO2
KDBN 161635Z AUTO 32005KT 10SM SCT024 BKN031 OVC085 25/19 A3007 RMK AO2
KDBN 161615Z AUTO 33003KT 10SM OVC031 25/18 A3008 RMK AO2
KDBN 161555Z AUTO 34005KT 10SM OVC031 25/18 A3007 RMK AO2
KDBN 161535Z AUTO 34004KT 10SM BKN031 BKN036 OVC100 25/18 A3007 RMK AO2
KDBN 161515Z AUTO 35005KT 10SM SCT031 SCT038 OVC100 25/18 A3008 RMK AO2
KDBN 161455Z AUTO 32005KT 10SM SCT040 OVC110 24/18 A3008 RMK AO2
KDBN 161435Z AUTO 32004KT 10SM SCT028 SCT042 BKN110 25/19 A3007 RMK AO2
KDBN 161415Z AUTO 33005KT 10SM SCT028 SCT045 24/19 A3007 RMK AO2
KDBN 161355Z AUTO 35004KT 10SM BKN040 BKN045 24/20 A3007 RMK AO2
KDBN 161335Z AUTO 33005KT 10SM BKN042 23/20 A3007 RMK AO2
KDBN 161315Z AUTO 33004KT 10SM CLR 23/20 A3006 RMK AO2
KDBN 161255Z AUTO 32003KT 10SM CLR 22/20 A3006 RMK AO2
KDBN 161235Z AUTO 00000KT 10SM SCT040 21/20 A3006 RMK AO2
KDBN 161215Z AUTO 00000KT 7SM SCT038 SCT044 20/19 A3006 RMK AO2
KDBN 161155Z AUTO 00000KT 10SM BKN038 BKN044 20/19 A3005 RMK AO2
KDBN 161135Z AUTO 00000KT 7SM BKN040 19/18 A3004 RMK AO2
KDBN 161115Z AUTO 00000KT 10SM CLR 19/18 A3004 RMK AO2
KDBN 161055Z AUTO 00000KT 10SM CLR 20/18 A3004 RMK AO2
KDBN 161035Z AUTO 00000KT 10SM CLR 20/18 A3004 RMK AO2
KDBN 161015Z AUTO 26003KT 10SM CLR 20/18 A3003 RMK AO2
KDBN 160955Z AUTO 00000KT 7SM CLR 18/18 A3003 RMK AO2
KDBN 160935Z AUTO 27003KT 10SM CLR 18/17 A3003 RMK AO2
KDBN 160915Z AUTO 00000KT 7SM CLR 18/17 A3003 RMK AO2
KDBN 160855Z AUTO 00000KT 7SM CLR 18/17 A3003 RMK AO2
KDBN 160835Z AUTO 00000KT 10SM CLR 18/17 A3003 RMK AO2
KDBN 160815Z AUTO 00000KT 10SM CLR 18/17 A3004 RMK AO2
KDBN 160755Z AUTO 00000KT 10SM CLR 18/17 A3004 RMK AO2
KDBN 160735Z AUTO 00000KT 7SM CLR 17/17 A3004 RMK AO2
KDBN 160715Z AUTO 00000KT 10SM CLR 17/17 A3005 RMK AO2
KDBN 160655Z AUTO 00000KT 10SM CLR 17/17 A3005 RMK AO2